createdAt,value
2023-04-23T00:00:13.379Z,60.54
2023-04-23T00:02:44.689Z,60.27
2023-04-23T00:05:13.130Z,60.21
2023-04-23T00:07:40.724Z,60.15
2023-04-23T00:10:09.056Z,60.43
2023-04-23T00:12:36.580Z,60.39
2023-04-23T00:15:04.444Z,60.58
2023-04-23T00:17:31.468Z,60.41
2023-04-23T00:19:58.369Z,60.89
2023-04-23T00:22:25.187Z,60.72
2023-04-23T00:24:52.369Z,61.33
2023-04-23T00:27:21.189Z,62.08
2023-04-23T00:29:51.500Z,61.62
2023-04-23T00:32:19.065Z,61.37
2023-04-23T00:34:48.925Z,61.38
2023-04-23T00:37:18.549Z,60.94
2023-04-23T00:39:45.754Z,61.79
2023-04-23T00:42:13.934Z,61.53
2023-04-23T00:44:44.169Z,61.24
2023-04-23T00:47:12.396Z,61.55
2023-04-23T00:49:39.591Z,61.71
2023-04-23T00:52:06.848Z,62.12
2023-04-23T00:54:34.182Z,62.65
2023-04-23T00:57:02.253Z,63.21
2023-04-23T00:59:32.099Z,63.00
2023-04-23T01:01:59.314Z,63.45
2023-04-23T01:04:29.578Z,63.19
2023-04-23T01:06:59.650Z,63.20
2023-04-23T01:09:27.894Z,62.67
2023-04-23T01:11:55.719Z,63.02
2023-04-23T01:14:22.859Z,62.61
2023-04-23T01:16:50.424Z,62.16
2023-04-23T01:19:17.776Z,62.10
2023-04-23T01:21:45.019Z,62.07
2023-04-23T01:24:15.441Z,62.15
2023-04-23T01:26:46.939Z,62.60
2023-04-23T01:29:14.358Z,62.02
2023-04-23T01:31:42.807Z,61.91
2023-04-23T01:34:10.921Z,62.48
2023-04-23T01:36:38.367Z,62.83
2023-04-23T01:39:06.076Z,62.68
2023-04-23T01:41:34.204Z,62.32
2023-04-23T01:44:02.374Z,62.74
2023-04-23T01:46:31.025Z,62.60
2023-04-23T01:48:59.125Z,63.34
2023-04-23T01:51:27.173Z,62.81
2023-04-23T01:53:56.835Z,63.18
2023-04-23T01:56:26.285Z,62.62
2023-04-23T01:58:53.738Z,62.84
2023-04-23T02:01:24.154Z,62.88
2023-04-23T02:03:54.622Z,62.77
2023-04-23T02:06:22.396Z,62.52
2023-04-23T02:08:49.858Z,62.15
2023-04-23T02:11:17.037Z,62.27
2023-04-23T02:13:44.205Z,63.04
2023-04-23T02:16:13.181Z,62.85
2023-04-23T02:18:41.393Z,62.63
2023-04-23T02:21:09.212Z,62.90
2023-04-23T02:23:36.528Z,62.87
2023-04-23T02:26:04.248Z,62.98
2023-04-23T02:28:31.881Z,62.69
2023-04-23T02:30:59.188Z,63.26
2023-04-23T02:33:26.674Z,63.23
2023-04-23T02:35:54.832Z,63.20
2023-04-23T02:38:22.424Z,63.83
2023-04-23T02:40:53.485Z,64.04
2023-04-23T02:43:21.910Z,63.78
2023-04-23T02:45:52.274Z,64.80
2023-04-23T02:48:19.391Z,65.00
2023-04-23T02:50:47.204Z,65.04
2023-04-23T02:53:16.681Z,64.66
2023-04-23T02:55:44.218Z,64.77
2023-04-23T02:58:13.223Z,64.95
2023-04-23T03:00:42.187Z,64.76
2023-04-23T03:03:12.365Z,64.77
2023-04-23T03:05:39.834Z,64.93
2023-04-23T03:08:07.180Z,64.17
2023-04-23T03:10:34.177Z,64.25
2023-04-23T03:13:00.978Z,64.01
2023-04-23T03:15:28.041Z,64.43
2023-04-23T03:17:55.164Z,64.70
2023-04-23T03:20:22.228Z,64.40
2023-04-23T03:22:49.160Z,64.10
2023-04-23T03:25:16.544Z,64.00
2023-04-23T03:27:44.580Z,64.09
2023-04-23T03:30:11.964Z,63.68
2023-04-23T03:32:41.825Z,63.87
2023-04-23T03:35:09.670Z,63.90
2023-04-23T03:37:39.173Z,63.93
2023-04-23T03:40:08.183Z,63.50
2023-04-23T03:42:38.526Z,63.56
2023-04-23T03:45:06.642Z,63.76
2023-04-23T03:47:34.140Z,63.90
2023-04-23T03:50:01.522Z,63.75
2023-04-23T03:52:29.775Z,63.67
2023-04-23T03:54:59.770Z,64.13
2023-04-23T03:57:35.715Z,63.79
2023-04-23T04:00:15.999Z,63.90
2023-04-23T04:02:43.343Z,63.59
2023-04-23T04:05:11.494Z,63.20
2023-04-23T04:07:41.262Z,63.51
2023-04-23T04:10:08.434Z,63.45
2023-04-23T04:12:35.442Z,63.18
2023-04-23T04:15:03.412Z,62.92
2023-04-23T04:17:30.368Z,63.23
2023-04-23T04:19:57.400Z,63.01
2023-04-23T04:22:24.617Z,63.03
2023-04-23T04:24:52.846Z,63.29
2023-04-23T04:27:19.655Z,62.70
2023-04-23T04:29:46.675Z,62.93
2023-04-23T04:32:13.918Z,62.47
2023-04-23T04:34:41.430Z,62.92
2023-04-23T04:37:10.136Z,62.54
2023-04-23T04:39:37.287Z,62.64
2023-04-23T04:42:06.922Z,62.84
2023-04-23T04:44:34.450Z,62.74
2023-04-23T04:47:01.759Z,63.21
2023-04-23T04:49:28.658Z,63.15
2023-04-23T04:51:55.506Z,62.95
2023-04-23T04:54:22.368Z,62.83
2023-04-23T04:56:49.227Z,62.91
2023-04-23T04:59:15.995Z,62.90
2023-04-23T05:01:43.451Z,63.06
2023-04-23T05:04:10.485Z,63.27
2023-04-23T05:06:37.912Z,63.32
2023-04-23T05:09:05.127Z,62.92
2023-04-23T05:11:32.016Z,62.90
2023-04-23T05:13:58.850Z,62.84
2023-04-23T05:16:25.735Z,62.58
2023-04-23T05:18:52.559Z,62.56
2023-04-23T05:21:19.706Z,62.81
2023-04-23T05:23:46.563Z,62.82
2023-04-23T05:26:13.457Z,63.10
2023-04-23T05:28:40.597Z,62.70
2023-04-23T05:31:07.448Z,62.82
2023-04-23T05:33:46.418Z,62.80
2023-04-23T05:36:16.617Z,62.39
2023-04-23T05:38:43.380Z,62.05
2023-04-23T05:41:10.548Z,62.19
2023-04-23T05:43:37.452Z,61.51
2023-04-23T05:46:07.869Z,61.55
2023-04-23T05:48:34.910Z,61.73
2023-04-23T05:51:01.872Z,61.08
2023-04-23T05:53:29.004Z,61.68
2023-04-23T05:55:56.230Z,61.87
2023-04-23T05:58:23.989Z,61.49
2023-04-23T06:00:53.167Z,61.20
2023-04-23T06:03:20.279Z,61.19
2023-04-23T06:05:47.295Z,60.74
2023-04-23T06:08:13.977Z,60.47
2023-04-23T06:10:40.801Z,60.40
2023-04-23T06:13:07.673Z,61.08
2023-04-23T06:15:34.399Z,60.76
2023-04-23T06:18:01.255Z,61.24
2023-04-23T06:20:28.236Z,61.36
2023-04-23T06:22:56.424Z,61.88
2023-04-23T06:25:23.748Z,62.81
2023-04-23T06:27:51.375Z,63.06
2023-04-23T06:30:22.796Z,61.76
2023-04-23T06:32:59.745Z,60.23
2023-04-23T06:35:26.868Z,59.54
2023-04-23T06:37:57.337Z,58.84
2023-04-23T06:40:24.484Z,59.72
2023-04-23T06:42:51.700Z,58.53
2023-04-23T06:45:32.027Z,55.25
2023-04-23T06:47:59.284Z,52.32
2023-04-23T06:50:29.724Z,47.34
2023-04-23T06:52:56.835Z,44.86
2023-04-23T06:55:27.371Z,41.65
2023-04-23T06:57:54.742Z,42.23
2023-04-23T07:00:24.803Z,42.65
2023-04-23T07:02:55.546Z,42.36
2023-04-23T07:05:22.647Z,41.91
2023-04-23T07:07:49.684Z,42.64
2023-04-23T07:10:18.083Z,44.18
2023-04-23T07:12:45.179Z,44.46
2023-04-23T07:15:12.266Z,43.40
2023-04-23T07:17:39.240Z,43.62
2023-04-23T07:20:10.774Z,45.03
2023-04-23T07:22:37.831Z,46.43
2023-04-23T07:25:05.487Z,47.42
2023-04-23T07:27:32.416Z,48.13
2023-04-23T07:29:59.626Z,49.03
2023-04-23T07:32:28.228Z,48.89
2023-04-23T07:34:58.573Z,48.26
2023-04-23T07:37:25.504Z,47.67
2023-04-23T07:39:53.717Z,47.22
2023-04-23T07:42:20.407Z,47.21
2023-04-23T07:44:47.104Z,47.55
2023-04-23T07:47:13.879Z,48.43
2023-04-23T07:49:40.709Z,49.13
2023-04-23T07:52:08.253Z,49.26
2023-04-23T07:54:35.330Z,48.88
2023-04-23T07:57:03.228Z,48.85
2023-04-23T07:59:34.063Z,48.74
2023-04-23T08:02:06.527Z,47.44
2023-04-23T08:04:34.006Z,45.96
2023-04-23T08:07:04.130Z,45.49
2023-04-23T08:09:33.118Z,45.62
2023-04-23T08:12:00.654Z,45.45
2023-04-23T08:14:30.355Z,46.67
2023-04-23T08:16:57.445Z,46.46
2023-04-23T08:19:27.171Z,46.81
2023-04-23T08:21:57.818Z,45.71
2023-04-23T08:24:27.264Z,44.49
2023-04-23T08:26:54.605Z,42.28
2023-04-23T08:29:22.019Z,34.68
2023-04-23T08:32:03.174Z,26.96
2023-04-23T08:34:36.925Z,27.98
2023-04-23T08:37:19.689Z,26.93
2023-04-23T08:39:58.281Z,30.14
2023-04-23T08:42:54.333Z,33.01
2023-04-23T08:45:32.832Z,34.25
2023-04-23T08:48:05.868Z,36.59
2023-04-23T08:50:33.700Z,35.45
2023-04-23T08:53:02.152Z,35.53
2023-04-23T08:55:29.530Z,28.96
2023-04-23T08:57:59.054Z,23.55
2023-04-23T09:00:26.372Z,20.93
2023-04-23T09:02:54.088Z,17.49
2023-04-23T09:05:21.133Z,16.49
2023-04-23T09:07:48.115Z,14.04
2023-04-23T09:10:16.997Z,17.09
2023-04-23T09:12:45.417Z,17.79
2023-04-23T09:15:13.262Z,16.18
2023-04-23T09:17:45.024Z,15.28
2023-04-23T09:20:14.363Z,14.62
2023-04-23T09:22:52.735Z,15.80
2023-04-23T09:25:22.278Z,16.00
2023-04-23T09:27:51.714Z,15.40
2023-04-23T09:30:20.203Z,16.06
2023-04-23T09:32:47.549Z,16.08
2023-04-23T09:35:16.458Z,16.58
2023-04-23T09:37:52.492Z,17.41
2023-04-23T09:40:22.585Z,18.79
2023-04-23T09:42:53.281Z,20.43
2023-04-23T09:45:20.827Z,22.25
2023-04-23T09:47:53.586Z,22.67
2023-04-23T09:50:38.425Z,23.34
2023-04-23T09:53:06.330Z,24.53
2023-04-23T09:55:43.800Z,24.91
2023-04-23T09:58:15.595Z,25.41
2023-04-23T10:00:43.021Z,23.77
2023-04-23T10:03:10.944Z,22.46
2023-04-23T10:06:00.373Z,20.92
2023-04-23T10:08:28.846Z,19.50
2023-04-23T10:11:06.545Z,18.77
2023-04-23T10:13:37.590Z,18.22
2023-04-23T10:16:18.620Z,19.60
2023-04-23T10:18:51.921Z,21.48
2023-04-23T10:21:20.381Z,21.64
2023-04-23T10:23:50.295Z,21.50
2023-04-23T10:26:19.562Z,21.86
2023-04-23T10:28:49.032Z,23.35
2023-04-23T10:31:16.279Z,25.22
2023-04-23T10:33:56.051Z,25.00
2023-04-23T10:36:26.108Z,23.92
2023-04-23T10:38:58.401Z,23.73
2023-04-23T10:41:33.725Z,23.62
2023-04-23T10:44:00.466Z,24.09
2023-04-23T10:46:31.584Z,23.63
2023-04-23T10:49:10.742Z,24.15
2023-04-23T10:54:08.296Z,24.84
2023-04-23T10:56:35.124Z,24.31
2023-04-23T10:59:02.382Z,22.29
2023-04-23T11:01:30.451Z,18.52
2023-04-23T11:03:57.772Z,15.77
2023-04-23T11:06:49.570Z,14.37
2023-04-23T11:09:31.062Z,15.63
2023-04-23T11:11:59.385Z,16.38
2023-04-23T11:14:43.546Z,15.32
2023-04-23T11:17:14.838Z,16.05
2023-04-23T11:20:02.462Z,17.34
2023-04-23T11:22:50.371Z,19.33
2023-04-23T11:25:25.135Z,20.39
2023-04-23T11:27:54.914Z,21.72
2023-04-23T11:30:25.059Z,22.41
2023-04-23T11:32:55.537Z,21.38
2023-04-23T11:35:37.785Z,19.54
2023-04-23T11:38:09.668Z,16.80
2023-04-23T11:40:37.356Z,15.17
2023-04-23T11:43:05.875Z,15.14
2023-04-23T11:45:33.168Z,15.22
2023-04-23T11:48:01.288Z,16.55
2023-04-23T11:50:30.883Z,15.41
2023-04-23T11:52:57.891Z,15.24
2023-04-23T11:55:24.857Z,15.06
2023-04-23T11:57:53.030Z,13.74
2023-04-23T12:00:20.210Z,14.69
2023-04-23T12:02:51.725Z,16.59
2023-04-23T12:05:29.965Z,18.00
2023-04-23T12:08:11.724Z,16.56
2023-04-23T12:11:00.718Z,15.57
2023-04-23T12:13:33.657Z,15.57
2023-04-23T12:16:05.110Z,13.49
2023-04-23T12:18:33.490Z,12.61
2023-04-23T12:21:11.129Z,12.03
2023-04-23T12:23:41.519Z,15.08
2023-04-23T12:26:12.652Z,18.01
2023-04-23T12:28:47.261Z,19.54
2023-04-23T12:31:21.246Z,21.44
2023-04-23T12:33:48.232Z,22.12
2023-04-23T12:36:16.849Z,22.71
2023-04-23T12:38:43.600Z,23.29
2023-04-23T12:41:10.858Z,23.23
2023-04-23T12:43:37.563Z,23.84
2023-04-23T12:46:04.268Z,24.51
2023-04-23T12:48:31.022Z,24.86
2023-04-23T12:50:57.698Z,24.85
2023-04-23T12:53:25.032Z,25.16
2023-04-23T12:55:51.694Z,25.44
2023-04-23T12:58:18.573Z,25.21
2023-04-23T13:00:45.380Z,25.02
2023-04-23T13:03:14.211Z,25.69
2023-04-23T13:05:41.883Z,25.08
2023-04-23T13:08:08.709Z,25.14
2023-04-23T13:10:35.685Z,25.23
2023-04-23T13:13:02.450Z,25.34
2023-04-23T13:15:29.592Z,25.23
2023-04-23T13:17:56.543Z,25.45
2023-04-23T13:20:25.347Z,24.89
2023-04-23T13:22:52.389Z,25.49
2023-04-23T13:25:19.676Z,25.61
2023-04-23T13:27:46.967Z,26.31
2023-04-23T13:30:14.524Z,26.61
2023-04-23T13:32:41.615Z,26.37
2023-04-23T13:35:10.186Z,26.71
2023-04-23T13:37:41.264Z,27.36
2023-04-23T13:40:08.678Z,26.52
2023-04-23T13:42:35.608Z,25.57
2023-04-23T13:45:05.105Z,25.76
2023-04-23T13:47:34.784Z,25.00
2023-04-23T13:50:07.004Z,24.91
2023-04-23T13:52:36.639Z,24.80
2023-04-23T13:55:07.838Z,25.01
2023-04-23T13:57:35.139Z,25.32
2023-04-23T14:00:02.578Z,25.17
2023-04-23T14:02:31.430Z,24.59
2023-04-23T14:04:59.654Z,25.33
2023-04-23T14:07:27.285Z,25.18
2023-04-23T14:09:54.637Z,25.74
2023-04-23T14:12:21.557Z,25.37
2023-04-23T14:14:49.630Z,25.83
2023-04-23T14:17:16.935Z,25.18
2023-04-23T14:19:44.636Z,25.36
2023-04-23T14:22:11.725Z,24.79
2023-04-23T14:24:52.138Z,25.81
2023-04-23T14:27:21.005Z,25.77
2023-04-23T14:30:00.564Z,25.98
2023-04-23T14:32:28.463Z,25.73
2023-04-23T14:34:55.786Z,26.00
2023-04-23T14:37:23.171Z,26.39
2023-04-23T14:39:50.515Z,25.92
2023-04-23T14:42:17.394Z,26.00
2023-04-23T14:44:44.411Z,26.37
2023-04-23T14:47:12.028Z,26.04
2023-04-23T14:49:45.496Z,25.92
2023-04-23T14:52:13.842Z,26.00
2023-04-23T14:54:40.896Z,26.61
2023-04-23T14:57:08.075Z,26.37
2023-04-23T14:59:35.324Z,26.91
2023-04-23T15:02:02.532Z,27.43
2023-04-23T15:04:30.039Z,27.44
2023-04-23T15:06:57.645Z,28.15
2023-04-23T15:09:24.515Z,28.23
2023-04-23T15:11:51.523Z,29.20
2023-04-23T15:14:21.024Z,29.03
2023-04-23T15:16:49.330Z,28.68
2023-04-23T15:19:18.601Z,28.62
2023-04-23T15:21:47.014Z,29.41
2023-04-23T15:24:15.148Z,29.71
2023-04-23T15:26:42.752Z,29.65
2023-04-23T15:29:13.950Z,29.31
2023-04-23T15:31:42.636Z,28.81
2023-04-23T15:34:11.576Z,28.92
2023-04-23T15:36:44.853Z,29.44
2023-04-23T15:39:13.126Z,29.57
2023-04-23T15:41:41.334Z,29.40
2023-04-23T15:44:13.073Z,30.20
2023-04-23T15:46:40.912Z,30.15
2023-04-23T15:49:08.085Z,30.54
2023-04-23T15:51:34.949Z,31.05
2023-04-23T15:54:02.799Z,30.91
2023-04-23T15:56:29.678Z,31.03
2023-04-23T15:58:59.395Z,31.44
2023-04-23T16:01:27.535Z,32.48
2023-04-23T16:06:30.292Z,32.97
2023-04-23T16:08:57.297Z,34.95
2023-04-23T16:11:27.710Z,36.98
2023-04-23T16:13:56.175Z,39.16
2023-04-23T16:16:23.336Z,41.39
2023-04-23T16:18:56.350Z,43.71
2023-04-23T16:21:24.959Z,44.43
2023-04-23T16:23:52.064Z,46.03
2023-04-23T16:26:18.916Z,46.86
2023-04-23T16:28:51.926Z,46.91
2023-04-23T16:31:23.551Z,46.33
2023-04-23T16:33:51.167Z,45.58
2023-04-23T16:36:18.419Z,45.57
2023-04-23T16:38:49.552Z,45.45
2023-04-23T16:41:19.221Z,45.51
2023-04-23T16:43:51.796Z,44.60
2023-04-23T16:46:18.881Z,44.66
2023-04-23T16:48:46.283Z,44.99
2023-04-23T16:51:14.018Z,45.39
2023-04-23T16:53:41.684Z,46.11
2023-04-23T16:56:08.786Z,46.38
2023-04-23T16:58:36.237Z,46.83
2023-04-23T17:01:03.104Z,48.16
2023-04-23T17:03:30.416Z,47.97
2023-04-23T17:06:28.100Z,48.46
2023-04-23T17:08:58.067Z,48.03
2023-04-23T17:11:26.393Z,47.54
2023-04-23T17:13:54.298Z,47.22
2023-04-23T17:16:21.636Z,47.25
2023-04-23T17:18:49.172Z,47.23
2023-04-23T17:21:16.378Z,47.59
2023-04-23T17:23:43.344Z,47.65
2023-04-23T17:26:10.372Z,47.38
2023-04-23T17:28:37.405Z,47.38
2023-04-23T17:31:04.368Z,47.65
2023-04-23T17:33:31.563Z,47.72
2023-04-23T17:35:58.518Z,47.71
2023-04-23T17:38:26.128Z,47.87
2023-04-23T17:40:53.676Z,47.59
2023-04-23T17:43:21.413Z,48.15
2023-04-23T17:45:48.762Z,48.55
2023-04-23T17:48:16.013Z,49.19
2023-04-23T17:50:43.721Z,49.33
2023-04-23T17:53:10.862Z,49.39
2023-04-23T17:55:38.844Z,49.16
2023-04-23T17:58:06.629Z,49.54
2023-04-23T18:00:35.597Z,50.12
2023-04-23T18:03:05.178Z,49.22
2023-04-23T18:05:34.965Z,49.22
2023-04-23T18:08:01.911Z,49.56
2023-04-23T18:10:29.963Z,50.33
2023-04-23T18:12:57.081Z,50.69
2023-04-23T18:15:25.927Z,50.45
2023-04-23T18:17:57.770Z,51.09
2023-04-23T18:20:26.777Z,51.66
2023-04-23T18:22:56.850Z,51.63
2023-04-23T18:25:25.415Z,51.55
2023-04-23T18:27:53.015Z,51.95
2023-04-23T18:30:23.362Z,51.99
2023-04-23T18:32:59.920Z,52.36
2023-04-23T18:35:27.739Z,52.83
2023-04-23T18:38:02.742Z,52.83
2023-04-23T18:40:29.829Z,53.36
2023-04-23T18:42:57.086Z,53.42
2023-04-23T18:45:24.578Z,53.89
2023-04-23T18:47:57.784Z,53.47
2023-04-23T18:50:48.637Z,54.13
2023-04-23T18:53:16.109Z,53.90
2023-04-23T18:55:42.951Z,54.15
2023-04-23T18:58:10.993Z,54.08
2023-04-23T19:00:38.021Z,54.16
2023-04-23T19:03:15.229Z,54.11
2023-04-23T19:05:51.347Z,53.58
2023-04-23T19:08:18.314Z,54.08
2023-04-23T19:10:45.752Z,54.38
2023-04-23T19:13:12.540Z,54.06
2023-04-23T19:15:39.414Z,54.72
2023-04-23T19:18:06.492Z,54.51
2023-04-23T19:20:33.880Z,54.64
2023-04-23T19:23:04.193Z,54.66
2023-04-23T19:25:32.521Z,55.21
2023-04-23T19:27:59.830Z,55.21
2023-04-23T19:30:27.063Z,54.83
2023-04-23T19:32:54.120Z,54.56
2023-04-23T19:35:21.699Z,54.96
2023-04-23T19:37:48.805Z,54.61
2023-04-23T19:40:16.458Z,54.59
2023-04-23T19:42:43.556Z,54.58
2023-04-23T19:45:10.930Z,54.62
2023-04-23T19:47:40.548Z,55.06
2023-04-23T19:50:12.557Z,54.78
2023-04-23T19:52:40.550Z,54.45
2023-04-23T19:55:10.387Z,54.59
2023-04-23T19:57:37.813Z,55.34
2023-04-23T20:00:06.687Z,54.91
2023-04-23T20:02:35.848Z,55.08
2023-04-23T20:05:03.798Z,55.11
2023-04-23T20:07:35.657Z,54.67
2023-04-23T20:10:02.526Z,54.58
2023-04-23T20:12:30.673Z,54.79
2023-04-23T20:14:57.887Z,54.50
2023-04-23T20:17:26.760Z,54.38
2023-04-23T20:19:54.337Z,53.97
2023-04-23T20:22:21.069Z,53.91
2023-04-23T20:24:49.285Z,53.31
2023-04-23T20:27:16.451Z,53.14
2023-04-23T20:29:43.355Z,52.77
2023-04-23T20:32:10.551Z,52.84
2023-04-23T20:34:37.727Z,52.66
2023-04-23T20:37:04.559Z,52.31
2023-04-23T20:39:32.685Z,52.13
2023-04-23T20:42:01.157Z,52.54
2023-04-23T20:44:28.234Z,52.15
2023-04-23T20:46:57.920Z,52.23
2023-04-23T20:49:27.958Z,52.42
2023-04-23T20:51:55.245Z,53.22
2023-04-23T20:54:22.572Z,53.59
2023-04-23T20:56:54.084Z,53.99
2023-04-23T20:59:22.063Z,53.70
2023-04-23T21:01:49.941Z,54.07
2023-04-23T21:04:17.420Z,53.78
2023-04-23T21:06:44.457Z,54.21
2023-04-23T21:09:11.474Z,54.23
2023-04-23T21:11:38.819Z,54.34
2023-04-23T21:14:08.754Z,54.62
2023-04-23T21:16:39.357Z,54.27
2023-04-23T21:19:06.312Z,54.22
2023-04-23T21:21:33.336Z,54.17
2023-04-23T21:24:01.110Z,54.35
2023-04-23T21:26:31.296Z,54.58
2023-04-23T21:28:58.565Z,54.31
2023-04-23T21:31:48.382Z,54.66
2023-04-23T21:34:15.759Z,55.31
2023-04-23T21:36:44.871Z,55.90
2023-04-23T21:39:13.312Z,56.38
2023-04-23T21:41:40.442Z,56.21
2023-04-23T21:44:08.696Z,56.71
2023-04-23T21:46:35.619Z,56.57
2023-04-23T21:49:02.540Z,57.13
2023-04-23T21:51:29.919Z,56.83
2023-04-23T21:53:57.033Z,57.36
2023-04-23T21:56:27.416Z,56.76
2023-04-23T21:58:54.157Z,56.88
2023-04-23T22:01:22.161Z,56.81
2023-04-23T22:03:50.413Z,56.98
2023-04-23T22:06:19.796Z,57.00
2023-04-23T22:08:46.992Z,56.81
2023-04-23T22:11:15.056Z,57.30
2023-04-23T22:13:42.301Z,57.11
2023-04-23T22:16:24.618Z,57.40
2023-04-23T22:18:57.081Z,57.40
2023-04-23T22:21:24.009Z,57.36
2023-04-23T22:23:53.556Z,57.38
2023-04-23T22:26:21.306Z,57.31
2023-04-23T22:28:48.192Z,57.42
2023-04-23T22:31:15.194Z,57.30
2023-04-23T22:33:42.106Z,57.07
2023-04-23T22:36:09.008Z,57.50
2023-04-23T22:38:35.858Z,57.71
2023-04-23T22:41:02.977Z,57.08
2023-04-23T22:43:30.611Z,57.42
2023-04-23T22:45:57.872Z,57.66
2023-04-23T22:48:25.031Z,57.51
2023-04-23T22:50:52.659Z,57.49
2023-04-23T22:53:20.335Z,57.73
2023-04-23T22:55:47.481Z,57.84
2023-04-23T22:58:14.646Z,57.70
2023-04-23T23:00:42.189Z,57.79
2023-04-23T23:03:09.502Z,57.82
2023-04-23T23:05:36.883Z,57.28
2023-04-23T23:08:04.171Z,57.99
2023-04-23T23:10:31.825Z,58.01
2023-04-23T23:13:02.934Z,57.46
2023-04-23T23:15:30.169Z,57.58
2023-04-23T23:17:58.122Z,57.43
2023-04-23T23:20:26.550Z,57.84
2023-04-23T23:22:53.559Z,58.07
2023-04-23T23:25:20.794Z,57.88
2023-04-23T23:27:48.475Z,57.94
2023-04-23T23:30:15.676Z,58.09
2023-04-23T23:32:42.890Z,57.99
2023-04-23T23:35:10.059Z,58.27
2023-04-23T23:37:36.962Z,58.42
2023-04-23T23:40:05.952Z,58.90
2023-04-23T23:42:32.854Z,58.36
2023-04-23T23:44:59.510Z,58.79
2023-04-23T23:47:26.266Z,58.54
2023-04-23T23:49:53.054Z,59.10
2023-04-23T23:52:19.763Z,58.59
2023-04-23T23:54:46.312Z,58.51
2023-04-23T23:57:12.908Z,58.55
2023-04-23T23:59:39.743Z,58.50
